Аэропорт: Ширак. Гюмри

ICAO: UDSG

METAR:
2019/01/21 23:00
UDSG 212300Z 08003KT 7000 NSC M15/M17 Q1019 R02/CLRD70 NOSIG
METAR:
2019/01/21 18:00
TAF UDSG 211701Z 2118/2218 VRB02KT 5000 BR NSC 
      TEMPO 2120/2207 3000 BR FEW030